createdAt,value
2019-04-04T00:01:29.593Z,77.70
2019-04-04T00:03:58.512Z,77.70
2019-04-04T00:06:27.750Z,77.80
2019-04-04T00:08:57.510Z,77.80
2019-04-04T00:11:26.530Z,77.80
2019-04-04T00:13:55.532Z,77.80
2019-04-04T00:16:24.339Z,78.00
2019-04-04T00:18:53.268Z,77.90
2019-04-04T00:21:22.283Z,77.90
2019-04-04T00:23:51.320Z,78.00
2019-04-04T00:26:20.196Z,78.10
2019-04-04T00:28:49.203Z,78.90
2019-04-04T00:31:19.550Z,78.20
2019-04-04T00:33:48.682Z,78.30
2019-04-04T00:36:17.579Z,78.30
2019-04-04T00:38:46.436Z,78.50
2019-04-04T00:41:15.310Z,78.40
2019-04-04T00:43:44.419Z,78.50
2019-04-04T00:46:13.432Z,78.60
2019-04-04T00:48:42.384Z,78.70
2019-04-04T00:51:11.340Z,78.80
2019-04-04T00:53:42.705Z,78.80
2019-04-04T00:56:10.949Z,79.00
2019-04-04T00:58:39.923Z,79.00
2019-04-04T01:01:08.993Z,79.00
2019-04-04T01:03:37.979Z,79.00
2019-04-04T01:06:06.996Z,79.10
2019-04-04T01:08:38.087Z,79.20
2019-04-04T01:11:06.469Z,79.20
2019-04-04T01:13:35.361Z,79.40
2019-04-04T01:16:04.365Z,79.30
2019-04-04T01:18:34.991Z,79.30
2019-04-04T01:21:05.445Z,79.40
2019-04-04T01:23:34.236Z,79.50
2019-04-04T01:26:03.383Z,79.50
2019-04-04T01:28:33.108Z,79.50
2019-04-04T01:31:01.903Z,79.50
2019-04-04T01:33:30.803Z,79.70
2019-04-04T01:35:59.732Z,80.50
2019-04-04T01:38:29.079Z,79.80
2019-04-04T01:40:58.747Z,79.90
2019-04-04T01:43:27.701Z,79.90
2019-04-04T01:45:56.688Z,80.00
2019-04-04T01:48:25.696Z,80.10
2019-04-04T01:50:54.560Z,80.10
2019-04-04T01:53:23.508Z,80.20
2019-04-04T01:55:52.420Z,80.20
2019-04-04T01:58:21.471Z,80.30
2019-04-04T02:00:50.597Z,80.30
2019-04-04T02:03:22.420Z,80.30
2019-04-04T02:05:52.319Z,80.40
2019-04-04T02:08:21.306Z,80.40
2019-04-04T02:11:09.485Z,80.50
2019-04-04T02:13:38.938Z,80.50
2019-04-04T02:16:09.012Z,80.70
2019-04-04T02:18:37.821Z,80.70
2019-04-04T02:21:06.737Z,80.70
2019-04-04T02:23:35.618Z,80.90
2019-04-04T02:26:05.253Z,80.80
2019-04-04T02:28:34.778Z,80.90
2019-04-04T02:31:05.304Z,81.00
2019-04-04T02:33:34.368Z,81.00
2019-04-04T02:36:03.277Z,81.10
2019-04-04T02:38:32.205Z,81.20
2019-04-04T02:41:00.936Z,81.30
2019-04-04T02:43:29.842Z,81.20
2019-04-04T02:45:58.836Z,81.30
2019-04-04T02:48:27.794Z,81.40
2019-04-04T02:50:56.712Z,81.40
2019-04-04T02:53:25.586Z,81.50
2019-04-04T02:55:54.552Z,81.60
2019-04-04T02:58:23.570Z,81.60
2019-04-04T03:00:52.460Z,81.60
2019-04-04T03:03:21.330Z,81.70
2019-04-04T03:05:51.918Z,81.70
2019-04-04T03:08:20.938Z,81.80
2019-04-04T03:10:49.749Z,81.80
2019-04-04T03:13:18.756Z,82.00
2019-04-04T03:15:48.333Z,81.90
2019-04-04T03:18:17.111Z,81.90
2019-04-04T03:20:49.054Z,81.90
2019-04-04T03:23:16.686Z,82.00
2019-04-04T03:25:47.298Z,82.00
2019-04-04T03:28:16.199Z,82.00
2019-04-04T03:30:52.842Z,82.10
2019-04-04T03:33:15.752Z,82.10
2019-04-04T03:35:44.617Z,82.20
2019-04-04T03:38:14.125Z,82.20
2019-04-04T03:40:43.237Z,82.20
2019-04-04T03:43:15.906Z,82.30
2019-04-04T03:45:42.879Z,82.30
2019-04-04T03:48:16.984Z,82.30
2019-04-04T03:50:42.462Z,82.30
2019-04-04T03:53:16.292Z,82.40
2019-04-04T03:55:42.051Z,82.40
2019-04-04T03:58:10.992Z,82.50
2019-04-04T04:00:40.693Z,82.50
2019-04-04T04:03:09.709Z,82.50
2019-04-04T04:05:40.775Z,82.50
2019-04-04T04:08:09.168Z,82.60
2019-04-04T04:10:37.995Z,82.60
2019-04-04T04:13:07.909Z,82.60
2019-04-04T04:15:36.873Z,82.60
2019-04-04T04:18:05.857Z,82.80
2019-04-04T04:20:37.467Z,82.80
2019-04-04T04:23:05.350Z,82.80
2019-04-04T04:25:36.528Z,82.90
2019-04-04T04:28:05.043Z,82.90
2019-04-04T04:30:33.997Z,83.10
2019-04-04T04:33:03.037Z,83.00
2019-04-04T04:35:32.138Z,83.10
2019-04-04T04:38:01.129Z,83.10
2019-04-04T04:40:29.975Z,83.20
2019-04-04T04:43:00.680Z,83.20
2019-04-04T04:45:29.505Z,83.30
2019-04-04T04:47:58.507Z,84.00
2019-04-04T04:50:27.448Z,83.40
2019-04-04T04:52:56.335Z,83.40
2019-04-04T04:55:27.321Z,83.40
2019-04-04T04:57:56.639Z,83.40
2019-04-04T05:00:27.696Z,83.50
2019-04-04T05:02:56.415Z,83.50
2019-04-04T05:05:25.582Z,83.60
2019-04-04T05:07:55.004Z,83.60
2019-04-04T05:10:24.075Z,83.60
2019-04-04T05:12:53.800Z,83.60
2019-04-04T05:15:22.640Z,83.70
2019-04-04T05:17:51.687Z,83.70
2019-04-04T05:20:20.523Z,83.70
2019-04-04T05:22:49.396Z,83.80
2019-04-04T05:25:18.206Z,83.80
2019-04-04T05:27:51.781Z,83.90
2019-04-04T05:30:20.746Z,83.90
2019-04-04T05:32:49.989Z,83.90
2019-04-04T05:35:20.549Z,83.90
2019-04-04T05:37:49.658Z,84.00
2019-04-04T05:40:18.629Z,84.00
2019-04-04T05:42:47.701Z,84.00
2019-04-04T05:45:16.614Z,84.00
2019-04-04T05:47:45.512Z,84.10
2019-04-04T05:50:16.396Z,84.10
2019-04-04T05:52:44.967Z,84.10
2019-04-04T05:55:13.876Z,84.10
2019-04-04T05:57:42.963Z,84.10
2019-04-04T06:00:14.016Z,84.10
2019-04-04T06:02:43.173Z,84.20
2019-04-04T06:05:12.736Z,84.20
2019-04-04T06:07:41.584Z,84.20
2019-04-04T06:10:12.218Z,84.20
2019-04-04T06:12:41.188Z,84.20
2019-04-04T06:15:10.089Z,84.30
2019-04-04T06:17:39.835Z,83.90
2019-04-04T06:20:09.106Z,84.30
2019-04-04T06:22:38.055Z,84.30
2019-04-04T06:25:07.140Z,84.40
2019-04-04T06:27:36.144Z,84.40
2019-04-04T06:30:05.461Z,84.40
2019-04-04T06:32:34.505Z,84.40
2019-04-04T06:35:03.452Z,84.40
2019-04-04T06:37:34.259Z,84.40
2019-04-04T06:40:02.957Z,84.40
2019-04-04T06:42:35.472Z,84.50
2019-04-04T06:45:02.589Z,84.50
2019-04-04T06:47:32.483Z,84.50
2019-04-04T06:50:01.517Z,85.30
2019-04-04T06:52:30.401Z,84.50
2019-04-04T06:54:59.437Z,84.50
2019-04-04T06:57:28.434Z,84.50
2019-04-04T06:59:57.364Z,84.50
2019-04-04T07:02:26.260Z,84.40
2019-04-04T07:04:55.204Z,84.40
2019-04-04T07:07:24.031Z,84.40
2019-04-04T07:09:52.984Z,84.30
2019-04-04T07:12:28.121Z,84.30
2019-04-04T07:14:52.519Z,84.40
2019-04-04T07:17:21.462Z,84.30
2019-04-04T07:19:50.473Z,84.30
2019-04-04T07:22:20.613Z,84.30
2019-04-04T07:24:49.670Z,84.30
2019-04-04T07:27:18.742Z,84.40
2019-04-04T07:29:47.771Z,84.30
2019-04-04T07:32:16.822Z,84.30
2019-04-04T07:34:45.969Z,84.30
2019-04-04T07:37:14.929Z,84.30
2019-04-04T07:39:43.877Z,84.30
2019-04-04T07:42:15.498Z,84.20
2019-04-04T07:44:43.494Z,84.10
2019-04-04T07:47:15.898Z,84.10
2019-04-04T07:49:43.025Z,84.10
2019-04-04T07:52:11.889Z,84.10
2019-04-04T07:54:40.769Z,84.10
2019-04-04T07:57:09.716Z,84.00
2019-04-04T07:59:38.701Z,84.00
2019-04-04T08:02:07.704Z,84.00
2019-04-04T08:04:36.793Z,83.80
2019-04-04T08:07:05.813Z,83.80
2019-04-04T08:09:34.701Z,83.70
2019-04-04T08:12:03.725Z,83.50
2019-04-04T08:14:32.671Z,83.50
2019-04-04T08:17:01.704Z,83.30
2019-04-04T08:19:30.733Z,83.30
2019-04-04T08:21:59.581Z,83.20
2019-04-04T08:24:28.624Z,83.10
2019-04-04T08:26:57.609Z,82.90
2019-04-04T08:29:26.533Z,82.60
2019-04-04T08:31:55.474Z,82.50
2019-04-04T08:34:24.478Z,83.10
2019-04-04T08:36:53.436Z,82.40
2019-04-04T08:39:22.289Z,82.30
2019-04-04T08:41:52.506Z,82.20
2019-04-04T08:44:21.499Z,82.10
2019-04-04T08:46:50.417Z,81.90
2019-04-04T08:49:19.423Z,82.40
2019-04-04T08:51:48.355Z,81.30
2019-04-04T08:54:21.579Z,81.20
2019-04-04T08:56:50.551Z,80.90
2019-04-04T08:59:19.532Z,80.50
2019-04-04T09:01:48.461Z,80.20
2019-04-04T09:04:17.296Z,79.80
2019-04-04T09:06:46.153Z,79.60
2019-04-04T09:09:15.074Z,79.40
2019-04-04T09:11:44.005Z,79.40
2019-04-04T09:14:12.972Z,79.30
2019-04-04T09:16:41.896Z,79.20
2019-04-04T09:19:10.775Z,79.20
2019-04-04T09:21:39.587Z,79.20
2019-04-04T09:24:08.610Z,79.30
2019-04-04T09:26:37.626Z,79.20
2019-04-04T09:29:06.652Z,79.10
2019-04-04T09:31:55.037Z,79.10
2019-04-04T09:34:24.163Z,78.90
2019-04-04T09:36:53.188Z,78.80
2019-04-04T09:39:22.069Z,78.80
2019-04-04T09:41:50.927Z,78.70
2019-04-04T09:44:19.860Z,78.60
2019-04-04T09:46:49.068Z,78.60
2019-04-04T09:49:18.032Z,78.40
2019-04-04T09:51:47.036Z,78.30
2019-04-04T09:54:19.131Z,78.10
2019-04-04T09:56:46.840Z,77.80
2019-04-04T09:59:15.991Z,77.60
2019-04-04T10:01:44.943Z,77.30
2019-04-04T10:04:13.956Z,77.00
2019-04-04T10:06:42.958Z,76.60
2019-04-04T10:09:15.964Z,76.30
2019-04-04T10:11:44.991Z,76.00
2019-04-04T10:14:15.507Z,75.80
2019-04-04T10:16:45.907Z,75.60
2019-04-04T10:19:14.961Z,75.30
2019-04-04T10:21:43.780Z,75.00
2019-04-04T10:24:12.676Z,74.90
2019-04-04T10:26:41.595Z,74.70
2019-04-04T10:29:10.580Z,74.60
2019-04-04T10:31:39.583Z,74.40
2019-04-04T10:34:08.389Z,74.10
2019-04-04T10:36:37.321Z,73.90
2019-04-04T10:39:08.677Z,73.80
2019-04-04T10:41:37.766Z,73.60
2019-04-04T10:44:06.568Z,73.20
2019-04-04T10:46:35.516Z,73.00
2019-04-04T10:49:04.319Z,72.90
2019-04-04T10:51:33.307Z,72.50
2019-04-04T10:54:02.313Z,72.50
2019-04-04T10:56:31.279Z,72.30
2019-04-04T10:59:00.139Z,72.00
2019-04-04T11:01:28.968Z,71.80
2019-04-04T11:03:57.894Z,71.50
2019-04-04T11:06:26.910Z,71.40
2019-04-04T11:08:55.931Z,71.10
2019-04-04T11:11:24.901Z,70.80
2019-04-04T11:13:53.799Z,70.60
2019-04-04T11:16:30.119Z,70.40
2019-04-04T11:18:53.351Z,70.20
2019-04-04T11:21:22.420Z,69.90
2019-04-04T11:23:51.152Z,69.60
2019-04-04T11:26:20.028Z,69.40
2019-04-04T11:28:48.980Z,69.20
2019-04-04T11:31:17.969Z,69.00
2019-04-04T11:33:46.823Z,68.80
2019-04-04T11:36:15.851Z,68.50
2019-04-04T11:38:44.773Z,68.30
2019-04-04T11:41:13.609Z,68.10
2019-04-04T11:43:42.544Z,67.90
2019-04-04T11:46:11.447Z,67.60
2019-04-04T11:48:40.460Z,67.20
2019-04-04T11:51:09.261Z,66.90
2019-04-04T11:53:38.164Z,66.60
2019-04-04T11:56:07.025Z,66.20
2019-04-04T11:58:36.013Z,65.90
2019-04-04T12:01:07.139Z,65.70
2019-04-04T12:03:36.155Z,65.40
2019-04-04T12:06:05.056Z,65.10
2019-04-04T12:08:34.006Z,64.70
2019-04-04T12:11:02.849Z,64.40
2019-04-04T12:13:31.730Z,64.20
2019-04-04T12:16:00.602Z,64.00
2019-04-04T12:18:29.556Z,63.70
2019-04-04T12:20:58.452Z,63.40
2019-04-04T12:23:27.447Z,63.20
2019-04-04T12:25:56.361Z,63.00
2019-04-04T12:28:25.243Z,62.80
2019-04-04T12:30:54.280Z,62.40
2019-04-04T12:33:23.219Z,62.20
2019-04-04T12:35:52.666Z,62.00
2019-04-04T12:38:21.707Z,61.70
2019-04-04T12:40:50.707Z,61.40
2019-04-04T12:43:19.732Z,61.30
2019-04-04T12:45:48.723Z,61.00
2019-04-04T12:48:17.610Z,60.80
2019-04-04T12:50:48.478Z,60.50
2019-04-04T12:53:17.071Z,60.30
2019-04-04T12:55:46.086Z,60.10
2019-04-04T12:58:15.017Z,59.80
2019-04-04T13:00:44.003Z,59.50
2019-04-04T13:03:13.028Z,59.40
2019-04-04T13:05:42.360Z,59.20
2019-04-04T13:08:11.227Z,59.10
2019-04-04T13:10:40.151Z,58.80
2019-04-04T13:13:09.223Z,58.50
2019-04-04T13:15:38.114Z,58.30
2019-04-04T13:18:07.019Z,58.20
2019-04-04T13:20:35.945Z,58.10
2019-04-04T13:23:04.853Z,58.00
2019-04-04T13:25:33.856Z,57.70
2019-04-04T13:28:02.817Z,57.50
2019-04-04T13:30:31.713Z,57.40
2019-04-04T13:33:00.688Z,57.40
2019-04-04T13:35:29.541Z,57.20
2019-04-04T13:37:58.492Z,57.00
2019-04-04T13:40:27.323Z,56.90
2019-04-04T13:42:56.298Z,56.90
2019-04-04T13:45:26.026Z,56.70
2019-04-04T13:47:55.050Z,56.70
2019-04-04T13:50:24.172Z,56.60
2019-04-04T13:52:53.171Z,56.60
2019-04-04T13:55:22.031Z,56.60
2019-04-04T13:57:50.925Z,56.50
2019-04-04T14:00:20.224Z,56.40
2019-04-04T14:02:49.140Z,56.50
2019-04-04T14:05:18.065Z,56.40
2019-04-04T14:07:46.958Z,56.30
2019-04-04T14:10:17.490Z,56.20
2019-04-04T14:12:46.492Z,56.10
2019-04-04T14:15:15.288Z,56.10
2019-04-04T14:17:46.531Z,56.00
2019-04-04T14:20:15.537Z,55.90
2019-04-04T14:22:44.497Z,55.60
2019-04-04T14:25:13.521Z,55.40
2019-04-04T14:27:42.421Z,55.10
2019-04-04T14:30:11.432Z,54.80
2019-04-04T14:32:40.375Z,54.70
2019-04-04T14:35:09.222Z,54.20
2019-04-04T14:37:38.210Z,53.80
2019-04-04T14:40:07.133Z,53.30
2019-04-04T14:42:36.069Z,53.10
2019-04-04T14:45:06.488Z,53.10
2019-04-04T14:47:36.650Z,53.00
2019-04-04T14:50:07.575Z,52.90
2019-04-04T14:52:39.174Z,52.80
2019-04-04T14:55:07.246Z,52.70
2019-04-04T14:57:37.810Z,52.60
2019-04-04T15:00:08.717Z,52.50
2019-04-04T15:02:37.605Z,52.30
2019-04-04T15:05:06.510Z,52.10
2019-04-04T15:07:37.551Z,52.20
2019-04-04T15:10:06.550Z,52.00
2019-04-04T15:12:35.460Z,51.90
2019-04-04T15:15:04.579Z,51.80
2019-04-04T15:17:33.470Z,51.90
2019-04-04T15:20:02.626Z,51.60
2019-04-04T15:22:32.047Z,51.50
2019-04-04T15:25:01.128Z,51.50
2019-04-04T15:27:30.065Z,51.20
2019-04-04T15:29:59.033Z,50.30
2019-04-04T15:32:27.938Z,49.70
2019-04-04T15:34:56.852Z,49.30
2019-04-04T15:37:25.812Z,49.00
2019-04-04T15:39:54.675Z,48.80
2019-04-04T15:42:23.675Z,48.70
2019-04-04T15:44:52.552Z,48.60
2019-04-04T15:47:21.510Z,48.60
2019-04-04T15:49:50.475Z,49.20
2019-04-04T15:52:19.500Z,48.50
2019-04-04T15:54:48.469Z,48.60
2019-04-04T15:57:17.341Z,48.60
2019-04-04T15:59:46.395Z,48.80
2019-04-04T16:02:15.373Z,49.00
2019-04-04T16:04:44.305Z,49.20
2019-04-04T16:07:13.661Z,49.70
2019-04-04T16:09:42.638Z,49.50
2019-04-04T16:12:11.763Z,49.70
2019-04-04T16:14:40.739Z,49.90
2019-04-04T16:17:09.887Z,50.00
2019-04-04T16:19:38.989Z,50.00
2019-04-04T16:22:07.958Z,49.90
2019-04-04T16:24:37.016Z,49.40
2019-04-04T16:27:05.887Z,49.00
2019-04-04T16:29:34.905Z,49.50
2019-04-04T16:32:03.825Z,48.70
2019-04-04T16:34:32.791Z,48.50
2019-04-04T16:37:02.136Z,48.50
2019-04-04T16:39:31.174Z,48.50
2019-04-04T16:42:02.535Z,48.50
2019-04-04T16:44:30.917Z,48.50
2019-04-04T16:46:59.860Z,48.60
2019-04-04T16:49:28.851Z,49.50
2019-04-04T16:51:58.159Z,49.00
2019-04-04T16:54:27.257Z,49.00
2019-04-04T16:56:56.241Z,49.10
2019-04-04T16:59:25.126Z,49.20
2019-04-04T17:01:53.937Z,49.40
2019-04-04T17:04:22.937Z,49.60
2019-04-04T17:06:54.488Z,49.80
2019-04-04T17:09:22.409Z,50.10
2019-04-04T17:11:51.344Z,51.00
2019-04-04T17:14:20.291Z,50.70
2019-04-04T17:16:49.284Z,50.90
2019-04-04T17:19:18.285Z,51.10
2019-04-04T17:21:47.187Z,51.30
2019-04-04T17:24:16.087Z,51.50
2019-04-04T17:26:45.120Z,51.80
2019-04-04T17:29:14.147Z,52.10
2019-04-04T17:31:43.363Z,52.50
2019-04-04T17:34:12.478Z,52.90
2019-04-04T17:36:41.440Z,53.30
2019-04-04T17:39:10.309Z,53.70
2019-04-04T17:41:39.761Z,54.00
2019-04-04T17:44:09.115Z,54.30
2019-04-04T17:46:37.982Z,54.40
2019-04-04T17:49:06.968Z,55.30
2019-04-04T17:51:36.582Z,54.90
2019-04-04T17:54:05.994Z,55.20
2019-04-04T17:56:37.559Z,55.40
2019-04-04T17:59:08.651Z,55.60
2019-04-04T18:01:37.626Z,55.80
2019-04-04T18:04:06.570Z,56.10
2019-04-04T18:06:35.541Z,56.20
2019-04-04T18:09:06.643Z,56.60
2019-04-04T18:11:35.594Z,56.40
2019-04-04T18:14:04.519Z,56.70
2019-04-04T18:16:33.550Z,56.90
2019-04-04T18:19:02.611Z,57.10
2019-04-04T18:21:31.551Z,57.20
2019-04-04T18:24:00.565Z,57.40
2019-04-04T18:26:29.609Z,57.50
2019-04-04T18:28:58.684Z,57.80
2019-04-04T18:31:27.657Z,57.90
2019-04-04T18:33:56.671Z,58.10
2019-04-04T18:36:25.859Z,58.30
2019-04-04T18:38:54.805Z,58.50
2019-04-04T18:41:23.763Z,58.70
2019-04-04T18:43:52.899Z,58.90
2019-04-04T18:46:22.057Z,59.00
2019-04-04T18:48:51.281Z,59.20
2019-04-04T18:51:20.278Z,59.40
2019-04-04T18:53:49.293Z,59.50
2019-04-04T18:56:18.396Z,59.60
2019-04-04T18:58:47.371Z,59.80
2019-04-04T19:01:35.563Z,60.00
2019-04-04T19:04:04.561Z,60.20
2019-04-04T19:06:33.706Z,60.30
2019-04-04T19:09:14.385Z,60.50
2019-04-04T19:11:34.823Z,60.70
2019-04-04T19:14:03.868Z,61.00
2019-04-04T19:16:32.856Z,61.20
2019-04-04T19:19:02.861Z,61.40
2019-04-04T19:21:33.814Z,61.70
2019-04-04T19:24:02.839Z,61.90
2019-04-04T19:26:31.816Z,62.00
2019-04-04T19:29:00.942Z,62.30
2019-04-04T19:31:29.839Z,62.30
2019-04-04T19:33:58.889Z,62.50
2019-04-04T19:36:27.853Z,62.60
2019-04-04T19:38:56.811Z,62.70
2019-04-04T19:41:25.907Z,62.90
2019-04-04T19:43:54.886Z,63.00
2019-04-04T19:46:36.329Z,63.20
2019-04-04T19:48:54.611Z,63.30
2019-04-04T19:51:23.612Z,63.40
2019-04-04T19:53:52.451Z,63.50
2019-04-04T19:56:21.442Z,63.70
2019-04-04T19:58:50.495Z,63.90
2019-04-04T20:01:19.544Z,64.00
2019-04-04T20:03:48.693Z,64.10
2019-04-04T20:06:17.543Z,64.20
2019-04-04T20:08:46.391Z,64.20
2019-04-04T20:11:15.357Z,64.30
2019-04-04T20:13:47.392Z,64.50
2019-04-04T20:16:35.635Z,64.70
2019-04-04T20:19:04.553Z,64.80
2019-04-04T20:21:33.412Z,64.90
2019-04-04T20:24:02.360Z,64.90
2019-04-04T20:26:31.303Z,65.10
2019-04-04T20:29:00.158Z,65.20
2019-04-04T20:31:29.118Z,65.30
2019-04-04T20:34:01.909Z,65.40
2019-04-04T20:36:28.774Z,65.50
2019-04-04T20:38:57.793Z,65.50
2019-04-04T20:41:26.776Z,65.50
2019-04-04T20:43:57.036Z,65.60
2019-04-04T20:46:25.991Z,65.60
2019-04-04T20:48:54.974Z,65.80
2019-04-04T20:51:24.999Z,65.80
2019-04-04T20:53:53.958Z,65.80
2019-04-04T20:56:22.909Z,65.80
2019-04-04T20:58:51.949Z,65.90
2019-04-04T21:01:21.037Z,65.90
2019-04-04T21:03:50.083Z,66.00
2019-04-04T21:06:19.144Z,66.00
2019-04-04T21:08:48.080Z,66.10
2019-04-04T21:13:40.457Z,66.10
2019-04-04T21:16:09.435Z,66.30
2019-04-04T21:18:38.404Z,66.40
2019-04-04T21:21:07.459Z,66.50
2019-04-04T21:23:36.336Z,66.50
2019-04-04T21:26:05.350Z,66.70
2019-04-04T21:28:34.288Z,66.70
2019-04-04T21:31:03.220Z,66.90
2019-04-04T21:33:32.242Z,67.00
2019-04-04T21:36:01.077Z,67.20
2019-04-04T21:38:30.075Z,67.20
2019-04-04T21:40:59.172Z,67.30
2019-04-04T21:43:28.045Z,67.40
2019-04-04T21:45:56.951Z,67.60
2019-04-04T21:48:25.976Z,67.80
2019-04-04T21:50:54.871Z,67.90
2019-04-04T21:53:23.956Z,68.00
2019-04-04T21:55:52.809Z,68.10
2019-04-04T21:58:24.032Z,68.20
2019-04-04T22:00:52.473Z,68.20
2019-04-04T22:03:21.407Z,68.30
2019-04-04T22:05:50.521Z,68.50
2019-04-04T22:08:19.487Z,68.60
2019-04-04T22:10:48.533Z,68.70
2019-04-04T22:13:17.505Z,68.80
2019-04-04T22:15:46.545Z,68.90
2019-04-04T22:18:15.334Z,69.10
2019-04-04T22:20:44.317Z,69.10
2019-04-04T22:23:13.261Z,69.20
2019-04-04T22:25:42.304Z,69.30
2019-04-04T22:28:11.374Z,69.40
2019-04-04T22:30:40.393Z,69.60
2019-04-04T22:33:09.389Z,69.60
2019-04-04T22:35:38.420Z,69.80
2019-04-04T22:38:07.280Z,69.90
2019-04-04T22:40:36.292Z,70.00
2019-04-04T22:43:05.327Z,70.10
2019-04-04T22:45:34.294Z,70.30
2019-04-04T22:48:03.295Z,70.30
2019-04-04T22:50:32.156Z,70.50
2019-04-04T22:53:01.099Z,70.50
2019-04-04T22:55:30.112Z,70.60
2019-04-04T22:57:59.029Z,70.80
2019-04-04T23:00:28.059Z,70.90
2019-04-04T23:02:57.571Z,71.00
2019-04-04T23:05:26.496Z,71.20
2019-04-04T23:07:55.426Z,71.30
2019-04-04T23:10:24.329Z,71.40
2019-04-04T23:12:53.362Z,71.60
2019-04-04T23:15:22.313Z,71.80
2019-04-04T23:17:51.362Z,71.90
2019-04-04T23:20:20.340Z,72.10
2019-04-04T23:22:53.119Z,72.20
2019-04-04T23:25:19.960Z,72.30
2019-04-04T23:27:48.850Z,72.30
2019-04-04T23:30:17.957Z,72.50
2019-04-04T23:32:46.925Z,72.70
2019-04-04T23:35:16.791Z,72.70
2019-04-04T23:37:45.904Z,72.90
2019-04-04T23:40:14.981Z,73.10
2019-04-04T23:42:43.956Z,73.20
2019-04-04T23:45:12.956Z,73.30
2019-04-04T23:47:43.593Z,73.40
2019-04-04T23:50:12.636Z,73.50
2019-04-04T23:52:41.616Z,73.70
2019-04-04T23:55:10.633Z,73.70
2019-04-04T23:57:39.623Z,73.80
